65.8°F
Current conditions from King Hill
Updated every 5 minutes
 
  Saturday August 2, 2014

Station Historical Data
Daily Summary for July 14, 2011 Units:  Metric    English   Both
« Previous Day
Next Day »
Daily Weekly Monthly Yearly Custom
  High: Low: Average:
Temperature: 25.7 °C 11.7 °C 18.1 °C
Dew Point: 18.3 °C 11.1 °C 14.3 °C
Humidity: 97% 48% 81%
Wind Speed: 9.7km/h 0km/h 2.9km/h
Wind Gust: 17.7km/h - -
Wind- - WSW
Pressure: 1016.8 hPa 1012.1 hPa -
Precipitation: 0.3 mm    
Historical Graphs
 
 
Tabular Data for July 14, 2011
Time Temperature Dew Point Pressure Wind Wind Speed Wind Gust Humidity Daily Rainfall
00:00 14.6 °C 13.9 °C 1012.1 hPa Calm   1.6 km/h 96% 15.7 mm
00:05 14.7 °C 14.1 °C 1012.1 hPa Calm   1.6 km/h 96% 0 mm
00:10 14.7 °C 14.1 °C 1012.1 hPa Calm   1.6 km/h 96% 0 mm
00:15 14.3 °C 13.5 °C 1012.1 hPa Calm   1.6 km/h 95% 0 mm
00:20 14.1 °C 13.3 °C 1012.1 hPa Calm   1.6 km/h 95% 0 mm
00:25 14.1 °C 13.3 °C 1012.1 hPa Calm   6.4 km/h 95% 0 mm
00:30 14.6 °C 13.9 °C 1012.1 hPa NE 3.2 km/h 8 km/h 96% 0 mm
00:35 14.8 °C 14.2 °C 1012.1 hPa Calm   8 km/h 96% 0 mm
00:40 14.8 °C 14.2 °C 1012.1 hPa Calm   1.6 km/h 96% 0 mm
00:45 14.7 °C 14.1 °C 1012.1 hPa Calm   3.2 km/h 96% 0 mm
00:50 14.6 °C 13.9 °C 1012.1 hPa Calm   3.2 km/h 96% 0 mm
00:55 14.6 °C 13.9 °C 1012.1 hPa NNE 1.6 km/h 4.8 km/h 96% 0 mm
01:00 14.7 °C 14.1 °C 1012.4 hPa Calm   4.8 km/h 96% 0 mm
01:05 14.8 °C 14.2 °C 1012.1 hPa Calm   4.8 km/h 96% 0 mm
01:10 14.8 °C 14.2 °C 1012.1 hPa Calm   4.8 km/h 96% 0 mm
01:15 14.8 °C 14.2 °C 1012.1 hPa Calm   1.6 km/h 96% 0 mm
01:20 14.8 °C 14.2 °C 1012.1 hPa NNE 1.6 km/h 8 km/h 96% 0 mm
01:25 14.8 °C 14.2 °C 1012.1 hPa Calm   8 km/h 96% 0 mm
01:30 14.7 °C 14.1 °C 1012.4 hPa Calm   6.4 km/h 96% 0 mm
01:35 14.7 °C 14.1 °C 1012.4 hPa Calm   6.4 km/h 96% 0 mm
01:40 14.6 °C 14 °C 1012.4 hPa Calm   1.6 km/h 96% 0 mm
01:45 14.6 °C 14 °C 1012.4 hPa Calm   3.2 km/h 96% 0 mm
01:50 14.6 °C 13.9 °C 1012.4 hPa Calm   4.8 km/h 96% 0 mm
01:55 14.6 °C 13.9 °C 1012.4 hPa Calm   4.8 km/h 96% 0 mm
02:00 14.4 °C 13.8 °C 1012.4 hPa Calm   4.8 km/h 96% 0 mm
02:05 14.3 °C 13.7 °C 1012.4 hPa Calm   3.2 km/h 96% 0 mm
02:10 14.3 °C 13.7 °C 1012.4 hPa Calm   3.2 km/h 96% 0 mm
02:15 14.2 °C 13.6 °C 1012.4 hPa Calm   3.2 km/h 96% 0 mm
02:20 13.9 °C 13.3 °C 1012.4 hPa Calm   3.2 km/h 96% 0 mm
02:25 13.7 °C 13.1 °C 1012.4 hPa Calm     96% 0 mm
02:30 13.6 °C 12.8 °C 1012.4 hPa Calm     95% 0 mm
02:35 13.5 °C 12.9 °C 1012.4 hPa Calm     96% 0 mm
02:40 13.4 °C 12.8 °C 1012.4 hPa Calm   1.6 km/h 96% 0 mm
02:45 13.2 °C 12.4 °C 1012.4 hPa Calm   1.6 km/h 95% 0 mm
02:50 13 °C 12.2 °C 1012.4 hPa Calm     95% 0 mm
02:55 12.8 °C 12.1 °C 1012.4 hPa Calm     95% 0 mm
03:00 12.7 °C 11.9 °C 1012.8 hPa Calm     95% 0 mm
03:05 12.7 °C 12.1 °C 1012.8 hPa Calm     96% 0 mm
03:10 12.5 °C 11.7 °C 1012.8 hPa Calm     95% 0 mm
03:15 12.5 °C 11.7 °C 1012.8 hPa Calm     95% 0 mm
03:20 12.4 °C 11.7 °C 1012.8 hPa Calm     95% 0 mm
03:25 12.2 °C 11.4 °C 1012.8 hPa Calm     95% 0 mm
03:30 12.1 °C 11.3 °C 1012.8 hPa Calm   1.6 km/h 95% 0 mm
03:35 12.2 °C 11.6 °C 1012.8 hPa Calm   1.6 km/h 96% 0 mm
03:40 12.4 °C 11.8 °C 1012.8 hPa Calm     96% 0 mm
03:45 12.4 °C 11.8 °C 1012.8 hPa Calm     96% 0 mm
03:50 12.4 °C 11.8 °C 1012.8 hPa Calm     96% 0 mm
03:55 12.2 °C 11.6 °C 1012.8 hPa Calm     96% 0 mm
04:00 12.3 °C 11.7 °C 1012.8 hPa Calm     96% 0 mm
04:05 12.3 °C 11.7 °C 1012.8 hPa Calm     96% 0 mm
04:10 12.2 °C 11.6 °C 1012.8 hPa Calm   1.6 km/h 96% 0 mm
04:15 12.2 °C 11.6 °C 1013.1 hPa Calm   1.6 km/h 96% 0 mm
04:20 12 °C 11.4 °C 1013.1 hPa Calm     96% 0 mm
04:25 11.9 °C 11.3 °C 1013.1 hPa Calm     96% 0 mm
04:30 11.8 °C 11.2 °C 1013.1 hPa Calm     96% 0 mm
04:35 11.8 °C 11.2 °C 1013.1 hPa Calm     96% 0 mm
04:40 11.7 °C 11.1 °C 1013.1 hPa Calm   1.6 km/h 96% 0 mm
04:45 11.8 °C 11.2 °C 1013.4 hPa Calm   1.6 km/h 96% 0 mm
04:50 11.8 °C 11.2 °C 1013.4 hPa Calm   1.6 km/h 96% 0 mm
04:55 11.9 °C 11.3 °C 1013.4 hPa Calm     96% 0 mm
05:00 12.1 °C 11.4 °C 1013.4 hPa Calm     96% 0 mm
05:05 12.1 °C 11.4 °C 1013.8 hPa Calm     96% 0 mm
05:15 12.2 °C 11.6 °C 1013.8 hPa Calm     96% 0 mm
05:20 12 °C 11.4 °C 1013.8 hPa Calm     96% 0 mm
05:25 11.9 °C 11.3 °C 1013.8 hPa Calm     96% 0 mm
05:30 12 °C 11.4 °C 1013.8 hPa Calm     96% 0 mm
05:35 11.9 °C 11.3 °C 1013.8 hPa Calm     96% 0 mm
05:40 11.7 °C 11.1 °C 1014.1 hPa Calm     96% 0 mm
05:45 11.8 °C 11.2 °C 1014.1 hPa Calm     96% 0 mm
05:50 12.1 °C 11.4 °C 1014.1 hPa Calm     96% 0 mm
05:55 12.1 °C 11.5 °C 1014.1 hPa Calm     96% 0 mm
06:00 12.1 °C 11.5 °C 1014.4 hPa Calm     96% 0 mm
06:05 12.1 °C 11.4 °C 1014.4 hPa Calm     96% 0 mm
06:10 11.9 °C 11.3 °C 1014.4 hPa Calm     96% 0 mm
06:15 11.9 °C 11.3 °C 1014.4 hPa Calm     96% 0 mm
06:20 11.9 °C 11.3 °C 1014.8 hPa Calm     96% 0 mm
06:25 12.2 °C 11.6 °C 1014.8 hPa Calm     96% 0 mm
06:30 12.2 °C 11.6 °C 1014.8 hPa Calm     96% 0 mm
06:35 12.3 °C 11.7 °C 1014.8 hPa Calm     96% 0 mm
06:40 12.3 °C 11.7 °C 1014.8 hPa Calm     96% 0 mm
06:45 12.2 °C 11.6 °C 1015.1 hPa Calm     96% 0 mm
06:50 12.2 °C 11.6 °C 1015.1 hPa Calm     96% 0 mm
06:55 12.3 °C 11.7 °C 1015.1 hPa Calm     96% 0 mm
07:00 12.3 °C 11.7 °C 1015.1 hPa Calm     96% 0 mm
07:05 12.5 °C 11.9 °C 1015.1 hPa Calm     96% 0 mm
07:10 12.7 °C 12.1 °C 1015.1 hPa Calm     96% 0 mm
07:15 13 °C 12.4 °C 1015.5 hPa Calm     96% 0 mm
07:20 13.3 °C 12.7 °C 1015.5 hPa Calm     96% 0 mm
07:25 13.6 °C 13.1 °C 1015.5 hPa Calm     97% 0.3 mm
07:30 13.8 °C 13.4 °C 1015.5 hPa Calm     97% 0.3 mm
07:35 14.2 °C 13.7 °C 1015.5 hPa Calm     97% 0.3 mm
07:40 14.3 °C 13.8 °C 1015.8 hPa Calm     97% 0.3 mm
07:45 14.4 °C 14 °C 1015.8 hPa Calm   1.6 km/h 97% 0.3 mm
07:50 14.4 °C 14 °C 1015.8 hPa Calm   1.6 km/h 97% 0.3 mm
07:55 14.8 °C 14.4 °C 1015.8 hPa Calm   1.6 km/h 97% 0.3 mm
08:00 15.3 °C 14.8 °C 1015.8 hPa Calm     97% 0.3 mm
08:05 15.6 °C 15.1 °C 1015.8 hPa Calm     97% 0.3 mm
08:10 15.8 °C 15.3 °C 1016.1 hPa Calm   1.6 km/h 97% 0.3 mm
08:15 15.9 °C 15.4 °C 1016.1 hPa Calm   6.4 km/h 97% 0.3 mm
08:20 15.8 °C 15.3 °C 1016.5 hPa NW 3.2 km/h 12.9 km/h 97% 0.3 mm
08:25 15.7 °C 15.2 °C 1016.5 hPa WNW 4.8 km/h 14.5 km/h 97% 0.3 mm
08:30 15.7 °C 15.2 °C 1016.5 hPa NW 4.8 km/h 14.5 km/h 97% 0.3 mm
08:35 15.9 °C 15.4 °C 1016.5 hPa NW 3.2 km/h 14.5 km/h 97% 0.3 mm
08:40 16.1 °C 15.5 °C 1016.5 hPa NW 4.8 km/h 9.7 km/h 96% 0.3 mm
08:45 16.4 °C 15.8 °C 1016.5 hPa Calm   14.5 km/h 96% 0.3 mm
08:50 16.6 °C 15.9 °C 1016.5 hPa Calm   14.5 km/h 96% 0.3 mm
08:55 16.7 °C 15.9 °C 1016.5 hPa Calm   12.9 km/h 95% 0.3 mm
09:00 17.1 °C 16.3 °C 1016.5 hPa Calm   9.7 km/h 95% 0.3 mm
09:05 17.4 °C 16.4 °C 1016.5 hPa Calm   1.6 km/h 94% 0.3 mm
09:10 17.8 °C 16.6 °C 1016.5 hPa NW 1.6 km/h 6.4 km/h 93% 0.3 mm
09:15 18.3 °C 16.6 °C 1016.8 hPa Calm   6.4 km/h 90% 0.3 mm
09:20 18.6 °C 16.4 °C 1016.5 hPa Calm   6.4 km/h 87% 0.3 mm
09:25 18.7 °C 15.9 °C 1016.5 hPa Calm   1.6 km/h 84% 0.3 mm
09:35 19.2 °C 16.4 °C 1016.5 hPa WNW 1.6 km/h 4.8 km/h 84% 0.3 mm
09:40 19.3 °C 16.4 °C 1016.5 hPa Calm   6.4 km/h 83% 0.3 mm
09:45 19.7 °C 16.9 °C 1016.5 hPa Calm   6.4 km/h 84% 0.3 mm
09:50 20 °C 16.7 °C 1016.5 hPa Calm   1.6 km/h 81% 0.3 mm
09:55 20.2 °C 16.8 °C 1016.5 hPa Calm   4.8 km/h 81% 0.3 mm
10:00 20.5 °C 17.1 °C 1016.8 hPa Calm   4.8 km/h 81% 0.3 mm
10:05 20.8 °C 17.1 °C 1016.5 hPa Calm   1.6 km/h 79% 0.3 mm
10:10 21.1 °C 16.9 °C 1016.5 hPa NW 4.8 km/h 11.3 km/h 77% 0.3 mm
10:15 20.9 °C 16.8 °C 1016.5 hPa WNW 1.6 km/h 11.3 km/h 77% 0.3 mm
10:20 20.8 °C 16.7 °C 1016.5 hPa WNW 1.6 km/h 11.3 km/h 77% 0.3 mm
10:25 20.8 °C 16.7 °C 1016.5 hPa Calm   11.3 km/h 77% 0.3 mm
10:35 21.4 °C 16.8 °C 1016.5 hPa Calm   8 km/h 75% 0.3 mm
10:40 21.9 °C 17.4 °C 1016.5 hPa Calm   4.8 km/h 76% 0.3 mm
10:45 22.3 °C 18.3 °C 1016.5 hPa Calm   4.8 km/h 78% 0.3 mm
10:50 22.6 °C 17.5 °C 1016.5 hPa Calm   4.8 km/h 73% 0.3 mm
10:55 22.8 °C 17.3 °C 1016.5 hPa Calm   4.8 km/h 71% 0.3 mm
11:00 23.1 °C 17.1 °C 1016.5 hPa Calm   1.6 km/h 69% 0.3 mm
11:05 23.2 °C 18.1 °C 1016.5 hPa NW 1.6 km/h 6.4 km/h 73% 0.3 mm
11:10 23.1 °C 17.1 °C 1016.5 hPa Calm   11.3 km/h 69% 0.3 mm
11:15 22.6 °C 16.3 °C 1016.5 hPa WNW 4.8 km/h 11.3 km/h 68% 0.3 mm
11:25 22.3 °C 17.2 °C 1016.8 hPa Calm   14.5 km/h 73% 0.3 mm
11:30 22.4 °C 16.3 °C 1016.5 hPa Calm   9.7 km/h 68% 0.3 mm
11:35 22.8 °C 17.1 °C 1016.5 hPa Calm   8 km/h 70% 0.3 mm
11:40 23.1 °C 16.8 °C 1016.5 hPa Calm   8 km/h 68% 0.3 mm
11:45 23.2 °C 16.9 °C 1016.5 hPa Calm   8 km/h 68% 0.3 mm
11:50 23.5 °C 15.6 °C 1016.5 hPa Calm   6.4 km/h 61% 0.3 mm
11:55 23.7 °C 17.9 °C 1016.5 hPa NNW 1.6 km/h 9.7 km/h 70% 0.3 mm
12:00 23.8 °C 15.8 °C 1016.1 hPa Calm   9.7 km/h 61% 0.3 mm
12:05 23.7 °C 15.2 °C 1016.1 hPa Calm   9.7 km/h 59% 0.3 mm
12:10 23.8 °C 16.1 °C 1016.1 hPa NNE 3.2 km/h 9.7 km/h 62% 0.3 mm
12:15 23.8 °C 16.1 °C 1016.1 hPa NW 4.8 km/h 12.9 km/h 62% 0.3 mm
12:20 24 °C 17 °C 1016.1 hPa Calm   12.9 km/h 65% 0.3 mm
12:25 24.2 °C 16.2 °C 1016.1 hPa Calm   6.4 km/h 61% 0.3 mm
12:30 24.3 °C 15.5 °C 1016.1 hPa NE 1.6 km/h 8 km/h 58% 0.3 mm
12:35 24.3 °C 15.2 °C 1016.1 hPa Calm   8 km/h 57% 0.3 mm
12:40 24.2 °C 14.3 °C 1015.8 hPa North 3.2 km/h 8 km/h 54% 0.3 mm
12:45 24.1 °C 15.6 °C 1016.1 hPa Calm   8 km/h 59% 0.3 mm
12:50 24.2 °C 16.4 °C 1015.8 hPa NW 1.6 km/h 8 km/h 62% 0.3 mm
12:55 24.2 °C 15.4 °C 1015.8 hPa WNW 6.4 km/h 11.3 km/h 58% 0.3 mm
13:00 24.3 °C 16.6 °C 1015.8 hPa Calm   11.3 km/h 62% 0.3 mm
13:05 24.5 °C 15.4 °C 1015.8 hPa NW 1.6 km/h 9.7 km/h 57% 0.3 mm
13:10 24.6 °C 15.6 °C 1015.8 hPa WNW 1.6 km/h 9.7 km/h 57% 0.3 mm
13:15 24.6 °C 15 °C 1015.8 hPa WNW 6.4 km/h 12.9 km/h 55% 0.3 mm
13:20 24.3 °C 14.7 °C 1015.8 hPa WNW 9.7 km/h 17.7 km/h 55% 0.3 mm
13:25 24.3 °C 13.8 °C 1015.8 hPa Calm   17.7 km/h 52% 0.3 mm
13:30 24.3 °C 17.3 °C 1015.8 hPa NW 1.6 km/h 16.1 km/h 65% 0.3 mm
13:35 24.6 °C 16.3 °C 1015.8 hPa Calm   11.3 km/h 60% 0.3 mm
13:40 24.8 °C 15.4 °C 1015.8 hPa Calm   8 km/h 56% 0.3 mm
13:45 24.7 °C 14.2 °C 1015.8 hPa NE 3.2 km/h 11.3 km/h 52% 0.3 mm
13:50 24.6 °C 16.3 °C 1015.5 hPa Calm   11.3 km/h 60% 0.3 mm
13:55 24.8 °C 15.4 °C 1015.5 hPa Calm   14.5 km/h 56% 0.3 mm
14:00 25 °C 16.9 °C 1015.5 hPa NNE 1.6 km/h 14.5 km/h 61% 0.3 mm
14:05 24.9 °C 16.7 °C 1015.5 hPa NW 1.6 km/h 9.7 km/h 60% 0.3 mm
14:10 25 °C 15.9 °C 1015.8 hPa NW 6.4 km/h 11.3 km/h 57% 0.3 mm
14:15 25.1 °C 14.9 °C 1015.8 hPa NE 1.6 km/h 11.3 km/h 53% 0.3 mm
14:20 25.1 °C 17 °C 1015.8 hPa Calm   11.3 km/h 61% 0.3 mm
14:25 25 °C 16.2 °C 1015.5 hPa NW 3.2 km/h 11.3 km/h 58% 0.3 mm
14:30 24.7 °C 15.6 °C 1015.5 hPa Calm   11.3 km/h 57% 0.3 mm
14:35 25.1 °C 17 °C 1015.5 hPa Calm   8 km/h 61% 0.3 mm
14:40 25.4 °C 16.3 °C 1015.5 hPa NW 1.6 km/h 9.7 km/h 57% 0.3 mm
14:45 25.6 °C 16.4 °C 1015.5 hPa NE 1.6 km/h 9.7 km/h 57% 0.3 mm
14:50 25.6 °C 16.4 °C 1015.5 hPa Calm   9.7 km/h 57% 0.3 mm
14:55 25.7 °C 16.8 °C 1015.5 hPa NW 1.6 km/h 12.9 km/h 58% 0.3 mm
15:00 25.6 °C 15.8 °C 1015.5 hPa Calm   12.9 km/h 55% 0.3 mm
15:05 25.4 °C 16.1 °C 1015.5 hPa Calm   8 km/h 56% 0.3 mm
15:10 25.4 °C 17.6 °C 1015.5 hPa Calm   3.2 km/h 62% 0.3 mm
15:20 24.8 °C 15.2 °C 1015.5 hPa Calm   9.7 km/h 55% 0.3 mm
15:30 24.5 °C 16.8 °C 1015.5 hPa Calm   9.7 km/h 62% 0.3 mm
15:35 24.4 °C 15.3 °C 1015.5 hPa NW 3.2 km/h 11.3 km/h 57% 0.3 mm
15:40 24.3 °C 16.6 °C 1015.5 hPa Calm   12.9 km/h 62% 0.3 mm
15:45 24.3 °C 14.9 °C 1015.5 hPa NW 4.8 km/h 14.5 km/h 56% 0.3 mm
15:50 24.1 °C 15.1 °C 1015.5 hPa NW 4.8 km/h 14.5 km/h 57% 0.3 mm
15:55 24.5 °C 15.4 °C 1015.5 hPa NW 3.2 km/h 12.9 km/h 57% 0.3 mm
16:00 24.9 °C 14.9 °C 1015.5 hPa NNE 1.6 km/h 11.3 km/h 54% 0.3 mm
16:10 24.8 °C 15.7 °C 1015.5 hPa NW 3.2 km/h 12.9 km/h 57% 0.3 mm
16:15 25 °C 15.3 °C 1015.5 hPa WNW 6.4 km/h 12.9 km/h 55% 0.3 mm
16:20 25.2 °C 16.3 °C 1015.5 hPa NW 1.6 km/h 14.5 km/h 58% 0.3 mm
16:25 25.2 °C 15 °C 1015.1 hPa WNW 6.4 km/h 14.5 km/h 53% 0.3 mm
16:30 25.2 °C 15.8 °C 1015.5 hPa NW 1.6 km/h 11.3 km/h 56% 0.3 mm
16:35 25.2 °C 16.3 °C 1015.1 hPa WNW 4.8 km/h 12.9 km/h 58% 0.3 mm
16:40 25.2 °C 14.9 °C 1015.1 hPa NNE 1.6 km/h 12.9 km/h 53% 0.3 mm
16:45 25.2 °C 14.1 °C 1015.1 hPa NE 1.6 km/h 9.7 km/h 50% 0.3 mm
16:50 25.3 °C 15.6 °C 1015.1 hPa Calm   9.7 km/h 55% 0.3 mm
16:55 25.3 °C 15.4 °C 1015.1 hPa NW 1.6 km/h 9.7 km/h 54% 0.3 mm
17:05 25.7 °C 15.7 °C 1014.8 hPa WNW 1.6 km/h 8 km/h 54% 0.3 mm
17:15 25.4 °C 15.1 °C 1014.8 hPa NW 1.6 km/h 12.9 km/h 53% 0.3 mm
17:20 25.5 °C 15.2 °C 1014.8 hPa Calm   9.7 km/h 53% 0.3 mm
17:25 25.4 °C 14.9 °C 1014.8 hPa NW 1.6 km/h 9.7 km/h 52% 0.3 mm
17:30 25.5 °C 14.9 °C 1014.8 hPa NW 1.6 km/h 9.7 km/h 52% 0.3 mm
17:35 25.3 °C 13.5 °C 1014.8 hPa NW 3.2 km/h 16.1 km/h 48% 0.3 mm
17:40 25.1 °C 14.6 °C 1014.8 hPa Calm   16.1 km/h 52% 0.3 mm
17:55 25.2 °C 15.5 °C 1014.8 hPa NW 3.2 km/h 11.3 km/h 55% 0.3 mm
18:05 24.6 °C 15.5 °C 1014.8 hPa Calm   9.7 km/h 57% 0.3 mm
18:10 24.2 °C 16.2 °C 1014.4 hPa Calm     61% 0.3 mm
18:15 23.7 °C 15.2 °C 1014.4 hPa NNW 1.6 km/h 6.4 km/h 59% 0.3 mm
18:20 23.3 °C 15.9 °C 1014.8 hPa Calm   6.4 km/h 63% 0.3 mm
18:25 23 °C 16.3 °C 1014.8 hPa Calm   1.6 km/h 66% 0.3 mm
18:30 22.7 °C 15.5 °C 1014.8 hPa Calm   1.6 km/h 64% 0.3 mm
18:35 22.6 °C 16.3 °C 1014.8 hPa Calm   3.2 km/h 68% 0.3 mm
18:40 22.3 °C 14.2 °C 1014.8 hPa Calm   3.2 km/h 60% 0.3 mm
18:45 22.3 °C 15.2 °C 1014.8 hPa Calm   1.6 km/h 64% 0.3 mm
18:50 22.3 °C 15.4 °C 1014.8 hPa Calm   3.2 km/h 65% 0.3 mm
18:55 22.3 °C 15.4 °C 1014.8 hPa Calm   3.2 km/h 65% 0.3 mm
19:00 22.2 °C 16 °C 1014.8 hPa Calm     68% 0.3 mm
19:05 22.1 °C 16.4 °C 1014.8 hPa Calm     70% 0.3 mm
19:10 21.9 °C 16.4 °C 1014.8 hPa Calm     71% 0.3 mm
19:15 21.8 °C 16.5 °C 1014.8 hPa Calm     72% 0.3 mm
19:25 21.2 °C 15.7 °C 1014.8 hPa Calm     71% 0.3 mm
19:30 20.8 °C 15.1 °C 1014.8 hPa Calm   1.6 km/h 70% 0.3 mm
19:35 20.4 °C 15.4 °C 1014.8 hPa Calm   1.6 km/h 73% 0.3 mm
19:40 20.1 °C 14.9 °C 1014.8 hPa Calm     72% 0.3 mm
19:45 19.9 °C 15.4 °C 1014.8 hPa Calm     75% 0.3 mm
19:55 19.5 °C 15.2 °C 1015.1 hPa Calm     76% 0.3 mm
20:00 19.3 °C 14.8 °C 1015.1 hPa Calm     75% 0.3 mm
20:05 19.2 °C 15.1 °C 1015.1 hPa Calm     77% 0.3 mm
20:10 18.9 °C 14.6 °C 1015.1 hPa Calm     76% 0.3 mm
20:15 18.7 °C 14.6 °C 1015.1 hPa Calm   1.6 km/h 77% 0.3 mm
20:20 18.4 °C 14.6 °C 1015.1 hPa Calm   1.6 km/h 78% 0.3 mm
20:25 18.2 °C 14.1 °C 1015.1 hPa Calm   1.6 km/h 77% 0.3 mm
20:30 18.1 °C 14.2 °C 1015.1 hPa Calm     78% 0.3 mm
20:35 17.8 °C 14.3 °C 1015.1 hPa Calm     80% 0.3 mm
20:40 17.4 °C 13.9 °C 1015.1 hPa Calm     80% 0.3 mm
20:45 16.9 °C 13.5 °C 1015.1 hPa Calm     80% 0.3 mm
20:50 16.7 °C 13.4 °C 1015.5 hPa Calm     81% 0.3 mm
20:55 16.3 °C 13.3 °C 1015.5 hPa Calm     82% 0.3 mm
21:00 16.1 °C 13.2 °C 1015.5 hPa Calm     83% 0.3 mm
21:05 15.8 °C 13.1 °C 1015.5 hPa Calm     84% 0.3 mm
21:10 15.5 °C 13 °C 1015.5 hPa Calm     85% 0.3 mm
21:15 15.3 °C 12.8 °C 1015.5 hPa Calm     85% 0.3 mm
21:20 15 °C 12.5 °C 1015.5 hPa Calm     85% 0.3 mm
21:25 15 °C 12.7 °C 1015.5 hPa Calm     86% 0.3 mm
21:30 14.8 °C 12.4 °C 1015.8 hPa Calm     86% 0.3 mm
21:35 14.7 °C 12.5 °C 1015.8 hPa Calm     87% 0.3 mm
21:40 14.5 °C 12.4 °C 1015.8 hPa Calm     87% 0.3 mm
21:45 14.3 °C 12.4 °C 1015.8 hPa Calm     88% 0.3 mm
21:50 14.3 °C 12.4 °C 1015.8 hPa Calm     88% 0.3 mm
21:55 14.3 °C 12.3 °C 1015.8 hPa Calm     88% 0.3 mm
22:00 14.3 °C 12.5 °C 1015.8 hPa Calm     89% 0.3 mm
22:05 14.3 °C 12.7 °C 1015.8 hPa Calm     90% 0.3 mm
22:10 14.3 °C 12.7 °C 1015.8 hPa Calm     90% 0.3 mm
22:15 14.2 °C 12.6 °C 1015.8 hPa Calm     90% 0.3 mm
22:25 14.2 °C 12.6 °C 1015.8 hPa Calm     90% 0.3 mm
22:30 14.2 °C 12.6 °C 1015.8 hPa Calm     90% 0.3 mm
22:35 14.3 °C 12.7 °C 1015.8 hPa Calm     90% 0.3 mm
22:40 14.4 °C 13 °C 1015.8 hPa Calm     91% 0.3 mm
22:45 14.6 °C 13.2 °C 1015.8 hPa Calm     91% 0.3 mm
22:50 14.8 °C 13.6 °C 1015.8 hPa Calm     92% 0.3 mm
22:55 15 °C 13.7 °C 1015.8 hPa Calm     92% 0.3 mm
23:00 15 °C 13.7 °C 1015.8 hPa Calm     92% 0.3 mm
23:05 15 °C 13.7 °C 1015.8 hPa NNW 1.6 km/h 3.2 km/h 92% 0.3 mm
23:10 15 °C 13.6 °C 1015.8 hPa Calm   3.2 km/h 91% 0.3 mm
23:15 15 °C 13.6 °C 1015.8 hPa Calm   1.6 km/h 91% 0.3 mm
23:20 15 °C 13.4 °C 1015.8 hPa Calm   1.6 km/h 90% 0.3 mm
23:25 14.8 °C 13.1 °C 1015.8 hPa Calm     89% 0.3 mm
23:30 14.7 °C 12.7 °C 1015.8 hPa Calm   3.2 km/h 88% 0.3 mm
23:35 14.6 °C 12.6 °C 1015.8 hPa Calm   3.2 km/h 88% 0.3 mm
23:40 14.5 °C 12.6 °C 1015.8 hPa Calm   1.6 km/h 88% 0.3 mm
23:45 14.4 °C 12.5 °C 1015.8 hPa Calm   1.6 km/h 88% 0.3 mm
23:50 14.3 °C 12.4 °C 1015.8 hPa NNW 1.6 km/h 3.2 km/h 88% 0.3 mm
23:55 14.4 °C 12.7 °C 1015.8 hPa Calm   3.2 km/h 89% 0.3 mm
Westford Weather
Compliments of Weather Underground

 
 
Current Radar Loop:

Copyright © WestfordWeather.net 2007-2014. All rights reserved.